Time;durP1;ratioP1;P1;durP2;ratioP2;P2;SDS_P1;SDS_P2;PMS_P1;PMS_P2;Temp;Humidity;BMP_temperature;BMP_pressure;BME280_temperature;BME280_humidity;BME280_pressure;Samples;Min_cycle;Max_cycle;Signal;HPM_P1;HPM_P2
2023/09/03 00:01:42;;;;;;;4.78;3.83;;;19.70;99.90;;;;;;5094092;28;20039;-60
2023/09/03 00:04:08;;;;;;;5.40;4.20;;;19.60;99.90;;;;;;5094117;28;20142;-60
2023/09/03 00:06:34;;;;;;;4.78;3.92;;;19.70;99.90;;;;;;5094209;28;20044;-61
2023/09/03 00:08:59;;;;;;;5.80;4.20;;;19.60;99.90;;;;;;5094090;28;20499;-60
2023/09/03 00:11:25;;;;;;;4.72;4.13;;;19.60;99.90;;;;;;5093777;28;20059;-61
2023/09/03 00:13:51;;;;;;;5.00;4.25;;;19.60;99.90;;;;;;5094238;28;20016;-60
2023/09/03 00:16:16;;;;;;;4.63;4.15;;;19.50;99.90;;;;;;5093877;28;20028;-60
2023/09/03 00:18:42;;;;;;;5.15;4.10;;;19.50;99.90;;;;;;5093903;28;20059;-61
2023/09/03 00:21:08;;;;;;;4.75;4.10;;;19.40;99.90;;;;;;5075726;28;20102;-60
2023/09/03 00:23:34;;;;;;;4.50;4.00;;;19.40;99.90;;;;;;5094076;28;20032;-61
2023/09/03 00:26:01;;;;;;;4.22;3.83;;;19.50;99.90;;;;;;5093473;28;20357;-60
2023/09/03 00:28:27;;;;;;;4.45;4.05;;;19.60;99.90;;;;;;5093573;28;20539;-60
2023/09/03 00:31:03;;;;;;;4.70;3.95;;;19.70;99.90;;;;;;5093654;28;20034;-60
2023/09/03 00:33:29;;;;;;;4.88;3.72;;;19.80;99.90;;;;;;5093987;28;20028;-60
2023/09/03 00:35:55;;;;;;;4.43;3.75;;;19.80;99.90;;;;;;5093730;28;20541;-61
2023/09/03 00:38:20;;;;;;;6.22;3.97;;;19.80;99.90;;;;;;5093486;28;20027;-61
2023/09/03 00:40:46;;;;;;;4.88;3.72;;;19.90;99.90;;;;;;5075073;28;20032;-60
2023/09/03 00:43:12;;;;;;;4.63;3.80;;;19.90;99.90;;;;;;5093386;28;20024;-61
2023/09/03 00:45:41;;;;;;;4.40;3.60;;;19.80;99.90;;;;;;5093399;28;20028;-61
2023/09/03 00:48:09;;;;;;;4.57;4.15;;;19.80;99.90;;;;;;5093321;28;20073;-60
2023/09/03 00:50:36;;;;;;;5.78;3.90;;;19.80;99.90;;;;;;5093597;28;20488;-60
2023/09/03 00:53:02;;;;;;;5.88;4.07;;;19.80;99.90;;;;;;5093389;28;20484;-60
2023/09/03 00:55:28;;;;;;;5.03;4.20;;;19.80;99.90;;;;;;5092751;28;20031;-60
2023/09/03 00:57:55;;;;;;;4.72;4.20;;;19.80;99.90;;;;;;5093593;28;20035;-61
2023/09/03 01:00:21;;;;;;;6.03;4.68;;;19.60;99.90;;;;;;5093115;28;20022;-60
2023/09/03 01:02:48;;;;;;;6.68;4.47;;;19.50;99.90;;;;;;5093001;28;20027;-60
2023/09/03 01:05:14;;;;;;;4.80;4.13;;;19.40;99.90;;;;;;5092979;28;20035;-60
2023/09/03 01:07:40;;;;;;;5.00;4.50;;;19.30;99.90;;;;;;5093018;28;20027;-60
2023/09/03 01:10:06;;;;;;;5.25;4.50;;;19.20;99.90;;;;;;5092507;28;20027;-60
2023/09/03 01:12:51;;;;;;;7.22;5.13;;;19.20;99.90;;;;;;5092593;28;20542;-60
2023/09/03 01:15:26;;;;;;;5.72;5.13;;;19.10;99.90;;;;;;5092950;28;20024;-60
2023/09/03 01:18:02;;;;;;;6.30;5.25;;;19.00;99.90;;;;;;5092784;28;20481;-61
2023/09/03 01:20:42;;;;;;;6.43;5.20;;;18.90;99.90;;;;;;5092791;28;20020;-61
2023/09/03 01:23:36;;;;;;;6.78;5.80;;;18.90;99.90;;;;;;5092631;28;20115;-60
2023/09/03 01:26:24;;;;;;;7.45;6.35;;;18.80;99.90;;;;;;5092259;28;20111;-60
2023/09/03 01:28:50;;;;;;;6.78;6.07;;;18.80;99.90;;;;;;5092525;28;20048;-60
2023/09/03 01:31:19;;;;;;;8.27;6.38;;;18.80;99.90;;;;;;5092566;28;20032;-60
2023/09/03 01:33:46;;;;;;;7.10;6.38;;;18.80;99.90;;;;;;5092484;28;20142;-61
2023/09/03 01:36:13;;;;;;;8.88;6.25;;;18.80;99.90;;;;;;5092784;28;20016;-61
2023/09/03 01:38:40;;;;;;;7.88;6.10;;;18.80;99.90;;;;;;5092120;28;20028;-60
2023/09/03 01:41:07;;;;;;;7.43;6.65;;;18.70;99.90;;;;;;5092296;28;20032;-60
2023/09/03 01:43:33;;;;;;;7.20;6.50;;;18.70;99.90;;;;;;5092139;28;20020;-61
2023/09/03 01:46:12;;;;;;;6.88;6.00;;;18.70;99.90;;;;;;5092221;28;20040;-61
2023/09/03 01:49:02;;;;;;;7.05;6.22;;;18.70;99.90;;;;;;5092252;28;20028;-60
2023/09/03 01:51:57;;;;;;;6.38;5.78;;;18.90;99.90;;;;;;5092011;28;20039;-60
2023/09/03 01:54:28;;;;;;;7.25;5.40;;;19.10;99.90;;;;;;4989821;28;20046;-60
2023/09/03 01:57:09;;;;;;;5.65;5.15;;;19.10;99.90;;;;;;4990655;28;20034;-61
2023/09/03 01:59:49;;;;;;;7.18;5.45;;;19.10;99.90;;;;;;4990642;28;20027;-60
2023/09/03 02:02:16;;;;;;;6.53;5.80;;;19.10;99.90;;;;;;4990128;28;20093;-60
2023/09/03 02:04:42;;;;;;;6.80;5.63;;;19.10;99.90;;;;;;4990085;28;20043;-60
2023/09/03 02:07:08;;;;;;;5.90;5.28;;;19.10;99.90;;;;;;4973839;28;20030;-60
2023/09/03 02:09:34;;;;;;;6.00;5.40;;;19.10;99.90;;;;;;4989703;28;20030;-61
2023/09/03 02:11:59;;;;;;;6.10;5.60;;;19.10;99.90;;;;;;4990429;28;20109;-61
2023/09/03 02:14:26;;;;;;;7.55;5.30;;;19.10;99.90;;;;;;4973490;28;20392;-61
2023/09/03 02:16:52;;;;;;;5.90;5.32;;;19.00;99.90;;;;;;4990185;28;20030;-61
2023/09/03 02:19:18;;;;;;;7.38;5.60;;;18.90;99.90;;;;;;4989912;28;20027;-60
2023/09/03 02:21:44;;;;;;;7.75;5.38;;;18.80;99.90;;;;;;4989630;28;20030;-61
2023/09/03 02:24:10;;;;;;;6.82;5.30;;;18.70;99.90;;;;;;4988863;28;20042;-60
2023/09/03 02:26:43;;;;;;;5.93;5.32;;;18.50;99.90;;;;;;4989797;28;20022;-61
2023/09/03 02:29:09;;;;;;;5.53;5.13;;;18.40;99.90;;;;;;4990324;28;20046;-61
2023/09/03 02:31:34;;;;;;;5.78;5.22;;;18.30;99.90;;;;;;5057763;28;20028;-61
2023/09/03 02:34:02;;;;;;;6.82;5.85;;;18.30;99.90;;;;;;5053372;28;20029;-61
2023/09/03 02:36:28;;;;;;;6.38;5.43;;;18.20;99.90;;;;;;5071247;28;20024;-60
2023/09/03 02:39:03;;;;;;;6.00;5.50;;;18.20;99.90;;;;;;5071065;28;20079;-61
2023/09/03 02:41:29;;;;;;;6.63;6.03;;;18.20;99.90;;;;;;5071340;28;20056;-60
2023/09/03 02:43:57;;;;;;;9.35;6.80;;;18.10;99.90;;;;;;5071091;28;20037;-61
2023/09/03 02:46:23;;;;;;;7.75;6.00;;;18.10;99.90;;;;;;5071481;28;20508;-60
2023/09/03 02:48:48;;;;;;;6.60;5.90;;;18.10;99.90;;;;;;5071090;28;20024;-61
2023/09/03 02:51:14;;;;;;;6.22;5.72;;;18.00;99.90;;;;;;5058831;28;20031;-60
2023/09/03 02:53:42;;;;;;;7.18;5.90;;;18.00;99.90;;;;;;5091500;28;20028;-60
2023/09/03 02:56:08;;;;;;;8.05;6.10;;;17.90;99.90;;;;;;5091245;28;20111;-60
2023/09/03 02:58:34;;;;;;;7.45;6.10;;;17.90;99.90;;;;;;5091323;28;20134;-61
2023/09/03 03:01:12;;;;;;;5.93;5.32;;;17.90;99.90;;;;;;5091181;28;20400;-61
2023/09/03 03:03:38;;;;;;;6.53;5.93;;;17.80;99.90;;;;;;5091450;28;20115;-60
2023/09/03 03:06:04;;;;;;;6.60;5.55;;;17.80;99.90;;;;;;5090774;28;20031;-61
2023/09/03 03:08:29;;;;;;;9.50;5.72;;;18.00;99.90;;;;;;5091110;28;20032;-60
2023/09/03 03:11:08;;;;;;;7.43;5.93;;;18.20;99.90;;;;;;5091112;28;20020;-60
2023/09/03 03:13:34;;;;;;;6.43;5.78;;;18.30;99.90;;;;;;5091414;28;20030;-60
2023/09/03 03:16:10;;;;;;;10.65;6.13;;;18.30;99.90;;;;;;5091074;28;20051;-60
2023/09/03 03:18:38;;;;;;;5.97;5.40;;;18.40;99.90;;;;;;5091001;28;20593;-60
2023/09/03 03:21:08;;;;;;;8.95;5.65;;;18.40;99.90;;;;;;5090516;28;20038;-60
2023/09/03 03:23:38;;;;;;;5.40;4.90;;;18.40;99.90;;;;;;5090849;28;20039;-61
2023/09/03 03:26:04;;;;;;;6.10;5.60;;;18.30;99.90;;;;;;5091012;28;20451;-60
2023/09/03 03:28:32;;;;;;;7.10;5.80;;;18.30;99.90;;;;;;5091218;28;20435;-60
2023/09/03 03:31:14;;;;;;;6.00;5.53;;;18.40;99.90;;;;;;5090931;28;20053;-61
2023/09/03 03:33:41;;;;;;;8.70;6.10;;;18.40;99.90;;;;;;5090814;28;20059;-60
2023/09/03 03:36:09;;;;;;;7.30;6.15;;;18.40;99.90;;;;;;5092053;28;20035;-60
2023/09/03 03:38:35;;;;;;;6.10;5.50;;;18.30;99.90;;;;;;5095170;28;20032;-61
2023/09/03 03:41:12;;;;;;;5.93;5.43;;;18.20;99.90;;;;;;5094589;28;20020;-61
2023/09/03 03:43:48;;;;;;;5.82;5.32;;;18.00;99.90;;;;;;5094490;28;20066;-60
2023/09/03 03:46:18;;;;;;;6.38;5.78;;;18.00;99.90;;;;;;5094511;28;20047;-60
2023/09/03 03:48:44;;;;;;;6.82;4.90;;;17.90;99.90;;;;;;5094173;28;20049;-59
2023/09/03 03:51:10;;;;;;;7.22;5.20;;;17.80;99.90;;;;;;5094250;28;20038;-61
2023/09/03 03:53:36;;;;;;;6.10;5.50;;;17.70;99.90;;;;;;5094310;28;20016;-60
2023/09/03 03:56:07;;;;;;;7.35;5.57;;;17.60;99.90;;;;;;5094818;28;20107;-61
2023/09/03 03:58:35;;;;;;;7.55;5.90;;;17.50;99.90;;;;;;5094301;28;20059;-60
2023/09/03 04:01:09;;;;;;;6.97;6.28;;;17.50;99.90;;;;;;5076120;28;20127;-61
2023/09/03 04:03:35;;;;;;;7.00;6.30;;;17.50;99.90;;;;;;5093676;28;20054;-61
2023/09/03 04:06:02;;;;;;;7.13;6.40;;;17.50;99.90;;;;;;5094145;28;20024;-61
2023/09/03 04:08:33;;;;;;;6.88;6.28;;;17.50;99.90;;;;;;5075892;28;20107;-61
2023/09/03 04:11:20;;;;;;;7.22;6.63;;;17.50;99.90;;;;;;5094104;28;20056;-60
2023/09/03 04:13:46;;;;;;;7.13;6.43;;;17.40;99.90;;;;;;5094050;28;20655;-61
2023/09/03 04:16:17;;;;;;;8.68;7.97;;;17.40;99.90;;;;;;5076216;28;20103;-60
2023/09/03 04:18:44;;;;;;;12.50;10.02;;;17.30;99.90;;;;;;5093168;28;20035;-60
2023/09/03 04:21:10;;;;;;;12.32;11.02;;;17.30;99.90;;;;;;5075678;28;20016;-60
2023/09/03 04:23:36;;;;;;;13.23;11.15;;;17.30;99.90;;;;;;5093696;28;20140;-61
2023/09/03 04:26:03;;;;;;;11.48;10.27;;;17.30;99.90;;;;;;5093815;28;20439;-60
2023/09/03 04:28:29;;;;;;;11.10;10.15;;;17.40;99.90;;;;;;5093584;28;20059;-60
2023/09/03 04:30:56;;;;;;;10.07;9.07;;;17.60;99.90;;;;;;5094124;28;20103;-60
2023/09/03 04:33:22;;;;;;;9.23;8.48;;;17.60;99.90;;;;;;5093399;28;20020;-61
2023/09/03 04:35:55;;;;;;;8.63;7.57;;;17.70;99.90;;;;;;5093568;28;20028;-60
2023/09/03 04:38:21;;;;;;;8.00;7.20;;;17.80;99.90;;;;;;5093531;28;20495;-60
2023/09/03 04:40:47;;;;;;;7.50;6.82;;;17.80;99.90;;;;;;5093855;28;20107;-60
2023/09/03 04:43:13;;;;;;;7.45;6.85;;;17.90;99.90;;;;;;5093368;28;20108;-60
2023/09/03 04:45:48;;;;;;;7.38;6.78;;;17.90;99.90;;;;;;5093293;28;20032;-60
2023/09/03 04:48:18;;;;;;;7.55;6.85;;;17.80;99.90;;;;;;5091384;28;20061;-60
2023/09/03 04:50:44;;;;;;;7.55;6.95;;;17.80;99.90;;;;;;5093146;28;20024;-61
2023/09/03 04:53:12;;;;;;;7.38;6.68;;;17.80;99.90;;;;;;5093395;28;20024;-60
2023/09/03 04:55:39;;;;;;;6.50;6.00;;;17.70;99.90;;;;;;5093224;28;20046;-60
2023/09/03 04:58:05;;;;;;;7.40;6.80;;;17.70;99.90;;;;;;5093164;28;20028;-60
2023/09/03 05:00:31;;;;;;;7.07;6.45;;;17.60;99.90;;;;;;5093512;28;20024;-60
2023/09/03 05:02:57;;;;;;;7.85;7.15;;;17.40;99.90;;;;;;5092818;28;20396;-60
2023/09/03 05:05:23;;;;;;;10.85;7.65;;;17.30;99.90;;;;;;5092951;28;20036;-60
2023/09/03 05:07:49;;;;;;;7.70;7.00;;;17.20;99.90;;;;;;5092942;28;20053;-60
2023/09/03 05:10:15;;;;;;;7.55;6.95;;;17.10;99.90;;;;;;5092922;28;20055;-60
2023/09/03 05:12:41;;;;;;;8.10;7.40;;;17.00;99.90;;;;;;5092735;28;20031;-60
2023/09/03 05:15:12;;;;;;;7.97;7.28;;;16.90;99.90;;;;;;5093159;28;20032;-60
2023/09/03 05:17:39;;;;;;;8.13;7.50;;;16.90;99.90;;;;;;5092430;28;20409;-60
2023/09/03 05:20:05;;;;;;;8.20;7.60;;;16.90;99.90;;;;;;5092663;28;20476;-61
2023/09/03 05:22:31;;;;;;;8.63;7.72;;;16.90;99.90;;;;;;5093088;28;20032;-60
2023/09/03 05:24:56;;;;;;;8.20;7.45;;;16.80;99.90;;;;;;5074315;28;20043;-60
2023/09/03 05:27:22;;;;;;;9.15;8.40;;;16.80;99.90;;;;;;5092415;28;20100;-60
2023/09/03 05:29:48;;;;;;;8.90;8.20;;;16.80;99.90;;;;;;5092800;28;20474;-60
2023/09/03 05:32:14;;;;;;;9.30;8.50;;;16.70;99.90;;;;;;5092419;28;20400;-60
2023/09/03 05:34:39;;;;;;;9.65;8.85;;;16.70;99.90;;;;;;5092509;28;20024;-60
2023/09/03 05:37:05;;;;;;;9.82;9.02;;;16.70;99.90;;;;;;5092361;28;20055;-61
2023/09/03 05:39:31;;;;;;;10.07;9.27;;;16.80;99.90;;;;;;5092338;28;20053;-61
2023/09/03 05:41:57;;;;;;;10.70;9.82;;;16.70;99.90;;;;;;5092404;28;20129;-60
2023/09/03 05:44:23;;;;;;;9.82;8.93;;;16.70;99.90;;;;;;5092185;28;20036;-61
2023/09/03 05:46:49;;;;;;;10.05;9.25;;;16.70;99.90;;;;;;5091869;28;20048;-60
2023/09/03 05:49:15;;;;;;;9.90;9.10;;;16.80;99.90;;;;;;5092139;28;20070;-59
2023/09/03 05:51:41;;;;;;;9.57;8.88;;;16.90;99.90;;;;;;5091895;28;20111;-61
2023/09/03 05:54:07;;;;;;;9.90;8.90;;;17.10;99.90;;;;;;5092129;28;20039;-60
2023/09/03 05:56:35;;;;;;;8.88;8.18;;;17.20;99.90;;;;;;5092046;28;20055;-60
2023/09/03 05:59:05;;;;;;;9.30;8.45;;;17.30;99.90;;;;;;5091533;28;20089;-60
2023/09/03 06:01:31;;;;;;;9.27;7.85;;;17.30;99.90;;;;;;5091583;28;20020;-60
2023/09/03 06:03:57;;;;;;;7.75;7.22;;;17.40;99.90;;;;;;5091873;28;20472;-60
2023/09/03 06:06:22;;;;;;;8.00;7.30;;;17.50;99.90;;;;;;5092253;28;20027;-61
2023/09/03 06:08:48;;;;;;;7.28;6.57;;;17.50;99.90;;;;;;5091873;28;20078;-60
2023/09/03 06:11:14;;;;;;;6.88;6.28;;;17.60;99.90;;;;;;5091870;28;20046;-60
2023/09/03 06:13:39;;;;;;;6.63;6.03;;;17.60;99.90;;;;;;5091681;28;20028;-61
2023/09/03 06:16:05;;;;;;;5.72;5.22;;;17.60;99.90;;;;;;5091174;28;20477;-60
2023/09/03 06:18:31;;;;;;;5.85;5.20;;;17.60;99.90;;;;;;5091626;28;20024;-61
2023/09/03 06:20:56;;;;;;;5.78;5.20;;;17.50;99.90;;;;;;5091918;28;20035;-60
2023/09/03 06:23:22;;;;;;;5.82;5.20;;;17.50;99.90;;;;;;5091632;28;20024;-60
2023/09/03 06:25:49;;;;;;;7.70;5.30;;;17.40;99.90;;;;;;5091780;28;20119;-59
2023/09/03 06:28:15;;;;;;;5.55;5.13;;;17.40;99.90;;;;;;5091011;28;20089;-59
2023/09/03 06:30:41;;;;;;;5.60;5.10;;;17.40;99.90;;;;;;5091808;28;20024;-61
2023/09/03 06:33:07;;;;;;;6.00;5.38;;;17.30;99.90;;;;;;5091477;28;20115;-61
2023/09/03 06:35:33;;;;;;;6.25;5.40;;;17.30;99.90;;;;;;5090120;28;20028;-60
2023/09/03 06:37:59;;;;;;;6.03;5.43;;;17.30;99.90;;;;;;5091721;28;20027;-60
2023/09/03 06:40:25;;;;;;;7.13;5.25;;;17.30;99.90;;;;;;5091245;28;20428;-61
2023/09/03 06:42:51;;;;;;;5.97;5.38;;;17.30;99.90;;;;;;5091021;28;20053;-60
2023/09/03 06:45:17;;;;;;;5.43;4.93;;;17.40;99.90;;;;;;5091289;28;20035;-60
2023/09/03 06:47:44;;;;;;;6.20;5.38;;;17.50;99.90;;;;;;5091206;28;20115;-60
2023/09/03 06:50:10;;;;;;;5.95;5.45;;;17.50;99.90;;;;;;5091351;28;20016;-60
2023/09/03 06:52:35;;;;;;;6.35;5.72;;;17.50;99.90;;;;;;5091478;28;20568;-60
2023/09/03 06:55:02;;;;;;;6.65;6.03;;;17.60;99.90;;;;;;5091161;28;20027;-61
2023/09/03 06:57:28;;;;;;;6.00;5.40;;;17.60;99.90;;;;;;5090938;28;20027;-60
2023/09/03 06:59:54;;;;;;;5.80;5.30;;;17.60;99.90;;;;;;5091170;28;20471;-61
2023/09/03 07:02:20;;;;;;;7.22;6.18;;;17.60;99.90;;;;;;5091060;28;20485;-60
2023/09/03 07:04:46;;;;;;;6.70;5.50;;;17.70;99.90;;;;;;5090973;28;20051;-60
2023/09/03 07:07:11;;;;;;;5.15;4.65;;;17.70;99.90;;;;;;5091532;28;20016;-60
2023/09/03 07:09:37;;;;;;;5.75;5.25;;;17.90;99.90;;;;;;5072658;28;20031;-61
2023/09/03 07:12:04;;;;;;;5.15;4.60;;;18.10;99.90;;;;;;5094273;28;20050;-60
2023/09/03 07:14:33;;;;;;;5.57;4.82;;;18.20;99.90;;;;;;5094948;28;20028;-60
2023/09/03 07:17:00;;;;;;;5.32;4.60;;;18.40;99.90;;;;;;5095079;28;20447;-60
2023/09/03 07:19:26;;;;;;;6.65;4.20;;;18.60;99.90;;;;;;5094939;28;20024;-60
2023/09/03 07:21:52;;;;;;;5.90;4.00;;;18.60;99.90;;;;;;5095205;28;20048;-60
2023/09/03 07:24:18;;;;;;;5.32;3.97;;;18.70;99.90;;;;;;5094750;28;20071;-60
2023/09/03 07:26:43;;;;;;;5.32;3.60;;;18.90;99.90;;;;;;5094733;28;20036;-61
2023/09/03 07:29:09;;;;;;;4.75;3.67;;;18.90;99.90;;;;;;5094899;28;20039;-60
2023/09/03 07:31:40;;;;;;;3.67;3.33;;;19.00;99.90;;;;;;5094803;28;20403;-61
2023/09/03 07:34:07;;;;;;;4.47;3.75;;;19.10;99.90;;;;;;5094732;28;20024;-60
2023/09/03 07:36:33;;;;;;;7.20;3.67;;;19.10;99.90;;;;;;5094773;28;20408;-61
2023/09/03 07:38:59;;;;;;;5.70;3.50;;;19.10;99.90;;;;;;5095003;28;20020;-61
2023/09/03 07:41:24;;;;;;;4.50;3.53;;;19.10;99.90;;;;;;5094231;28;20392;-61
2023/09/03 07:43:51;;;;;;;5.45;3.45;;;19.00;99.90;;;;;;5094527;28;20473;-60
2023/09/03 07:46:18;;;;;;;5.18;3.40;;;18.90;99.90;;;;;;5094502;28;20040;-60
2023/09/03 07:48:43;;;;;;;4.45;3.47;;;18.90;99.90;;;;;;5076255;28;20397;-60
2023/09/03 07:51:09;;;;;;;7.47;4.20;;;18.80;99.90;;;;;;5094656;28;20034;-60
2023/09/03 07:53:35;;;;;;;5.20;3.78;;;18.80;99.90;;;;;;5094317;28;20028;-61
2023/09/03 07:56:00;;;;;;;4.65;3.40;;;18.70;99.90;;;;;;5093945;28;20061;-61
2023/09/03 07:58:26;;;;;;;4.35;3.60;;;18.80;99.90;;;;;;5094340;28;20099;-60
2023/09/03 08:00:53;;;;;;;4.05;3.15;;;18.80;99.90;;;;;;5094383;28;20042;-61
2023/09/03 08:03:18;;;;;;;5.53;3.42;;;18.90;99.90;;;;;;5094514;28;20028;-61
2023/09/03 08:05:44;;;;;;;4.55;3.10;;;19.00;99.90;;;;;;5094261;28;20112;-61
2023/09/03 08:08:10;;;;;;;4.72;3.53;;;19.00;99.90;;;;;;5094641;28;20048;-61
2023/09/03 08:10:35;;;;;;;3.92;3.20;;;19.10;99.90;;;;;;5093735;28;20032;-61
2023/09/03 08:13:02;;;;;;;4.18;3.40;;;19.20;99.90;;;;;;5094057;28;20016;-61
2023/09/03 08:15:27;;;;;;;4.88;3.50;;;19.20;99.90;;;;;;5093994;28;20030;-61
2023/09/03 08:17:53;;;;;;;4.57;3.45;;;19.30;99.90;;;;;;5094005;28;20075;-61
2023/09/03 08:20:19;;;;;;;6.15;3.70;;;19.30;99.90;;;;;;5094279;28;20024;-61
2023/09/03 08:22:45;;;;;;;4.28;3.03;;;19.40;99.90;;;;;;5092828;28;20078;-60
2023/09/03 08:25:11;;;;;;;4.68;3.13;;;19.50;99.90;;;;;;5093313;28;20484;-60
2023/09/03 08:27:38;;;;;;;4.95;2.90;;;19.60;99.90;;;;;;5093797;28;20052;-60
2023/09/03 08:30:05;;;;;;;5.38;3.45;;;19.80;99.90;;;;;;5093769;28;20032;-61
2023/09/03 08:32:30;;;;;;;5.47;3.25;;;20.10;99.90;;;;;;5075699;28;20012;-60
2023/09/03 08:34:56;;;;;;;4.90;3.13;;;20.20;99.90;;;;;;5093735;28;20036;-60
2023/09/03 08:37:26;;;;;;;3.42;2.97;;;20.40;99.90;;;;;;5093707;28;20039;-60
2023/09/03 08:39:52;;;;;;;4.47;2.83;;;20.60;99.90;;;;;;5093142;28;20485;-60
2023/09/03 08:42:18;;;;;;;3.58;2.95;;;20.60;99.90;;;;;;5093840;28;20032;-60
2023/09/03 08:44:52;;;;;;;3.95;2.85;;;20.70;99.90;;;;;;5093490;28;20051;-60
2023/09/03 08:47:18;;;;;;;4.22;3.10;;;20.80;99.90;;;;;;5093543;28;20037;-61
2023/09/03 08:49:45;;;;;;;3.38;2.92;;;20.90;99.90;;;;;;5093389;28;20035;-60
2023/09/03 08:52:11;;;;;;;4.32;3.28;;;21.00;99.90;;;;;;5093110;28;20036;-61
2023/09/03 08:54:40;;;;;;;4.15;3.00;;;21.00;99.90;;;;;;5092916;28;20028;-61
2023/09/03 08:57:06;;;;;;;6.95;3.40;;;21.10;99.90;;;;;;5093658;28;20028;-61
2023/09/03 08:59:32;;;;;;;4.68;3.40;;;21.20;99.90;;;;;;5093315;28;20032;-61
2023/09/03 09:01:59;;;;;;;5.15;3.70;;;21.10;99.90;;;;;;5093276;28;20027;-61
2023/09/03 09:04:29;;;;;;;4.75;3.20;;;20.90;99.90;;;;;;5093332;28;20035;-60
2023/09/03 09:06:58;;;;;;;4.57;3.20;;;20.90;99.90;;;;;;5093052;28;20028;-60
2023/09/03 09:09:26;;;;;;;4.93;3.17;;;20.70;99.90;;;;;;5092867;28;20066;-60
2023/09/03 09:12:22;;;;;;;5.55;3.10;;;20.60;99.90;;;;;;5093170;28;20024;-60
2023/09/03 09:15:00;;;;;;;3.95;3.20;;;20.60;99.90;;;;;;5092864;28;20028;-61
2023/09/03 09:17:28;;;;;;;4.55;3.00;;;20.60;99.90;;;;;;5092834;28;20497;-60
2023/09/03 09:19:58;;;;;;;4.75;2.72;;;20.60;99.90;;;;;;5092753;28;20028;-60
2023/09/03 09:22:25;;;;;;;3.03;2.72;;;20.70;99.90;;;;;;5092825;28;20036;-60
2023/09/03 09:24:51;;;;;;;5.30;3.17;;;20.80;99.90;;;;;;5092499;28;20043;-61
2023/09/03 09:27:22;;;;;;;4.57;2.72;;;20.90;99.90;;;;;;5092615;28;20052;-61
2023/09/03 09:29:48;;;;;;;3.47;2.50;;;20.90;99.90;;;;;;5092613;28;20024;-60
2023/09/03 09:32:23;;;;;;;3.90;2.40;;;21.10;99.90;;;;;;5092533;28;20028;-61
2023/09/03 09:34:50;;;;;;;3.55;2.67;;;21.30;99.90;;;;;;5092158;28;20032;-60
2023/09/03 09:37:16;;;;;;;3.25;2.88;;;21.50;99.90;;;;;;5092584;28;20492;-61
2023/09/03 09:39:46;;;;;;;3.63;2.85;;;21.60;99.90;;;;;;5092578;28;20064;-61
2023/09/03 09:42:18;;;;;;;2.80;2.60;;;21.80;99.90;;;;;;5092370;28;20047;-60
2023/09/03 09:44:53;;;;;;;3.40;2.63;;;21.80;99.90;;;;;;5092391;28;20043;-61
2023/09/03 09:47:20;;;;;;;4.05;2.83;;;21.70;99.90;;;;;;5092203;28;20028;-60
2023/09/03 09:49:47;;;;;;;3.95;2.50;;;21.90;99.90;;;;;;5092282;28;20492;-61
2023/09/03 09:52:15;;;;;;;4.57;2.80;;;22.10;99.90;;;;;;5091611;28;20028;-61
2023/09/03 09:54:45;;;;;;;4.45;2.70;;;22.40;99.90;;;;;;5092417;28;20020;-61
2023/09/03 09:57:16;;;;;;;5.28;2.90;;;22.60;99.90;;;;;;5092200;28;20030;-60
2023/09/03 09:59:43;;;;;;;5.43;2.70;;;22.70;99.90;;;;;;5092001;28;20027;-61
2023/09/03 10:02:13;;;;;;;4.57;2.80;;;22.90;99.90;;;;;;5092242;28;20043;-61
2023/09/03 10:04:47;;;;;;;5.47;2.97;;;23.00;99.90;;;;;;5091827;28;20039;-61
2023/09/03 10:07:13;;;;;;;4.65;2.78;;;22.90;99.90;;;;;;5091588;28;20077;-60
2023/09/03 10:09:40;;;;;;;4.05;2.60;;;22.90;99.90;;;;;;5092234;28;20028;-61
2023/09/03 10:12:07;;;;;;;3.78;2.65;;;23.10;99.90;;;;;;5091929;28;20055;-61
2023/09/03 10:14:34;;;;;;;3.63;2.75;;;23.20;99.90;;;;;;5091926;28;20042;-61
2023/09/03 10:17:01;;;;;;;3.53;2.53;;;23.40;99.90;;;;;;5091839;28;20020;-61
2023/09/03 10:19:30;;;;;;;3.90;2.53;;;23.40;99.90;;;;;;5073917;28;20020;-60
2023/09/03 10:22:00;;;;;;;4.35;2.33;;;23.40;99.90;;;;;;5091051;28;20459;-61
2023/09/03 10:24:28;;;;;;;4.50;2.70;;;23.40;99.90;;;;;;5091923;28;20401;-61
2023/09/03 10:27:01;;;;;;;3.13;2.63;;;23.30;99.90;;;;;;5091477;28;20554;-61
2023/09/03 10:29:29;;;;;;;4.00;2.60;;;23.30;99.90;;;;;;5091961;28;20035;-61
2023/09/03 10:31:56;;;;;;;3.97;2.80;;;23.20;99.90;;;;;;5091640;28;20031;-61
2023/09/03 10:34:22;;;;;;;4.85;2.60;;;23.30;99.90;;;;;;5090186;28;20024;-61
2023/09/03 10:37:06;;;;;;;3.33;2.55;;;23.40;99.90;;;;;;5091221;28;20500;-60
2023/09/03 10:39:34;;;;;;;4.70;2.53;;;23.40;99.90;;;;;;5091580;28;20028;-60
2023/09/03 10:42:15;;;;;;;3.50;2.53;;;23.40;99.90;;;;;;5091283;28;20028;-60
2023/09/03 10:44:42;;;;;;;3.85;2.65;;;23.50;99.90;;;;;;5091408;28;20036;-61
2023/09/03 10:47:10;;;;;;;2.90;2.30;;;23.60;99.90;;;;;;5072870;28;20074;-61
2023/09/03 10:49:44;;;;;;;3.50;2.50;;;23.70;99.90;;;;;;5090982;28;20032;-61
2023/09/03 10:53:00;;;;;;;2.90;2.58;;;23.80;99.90;;;;;;5091521;28;20439;-61
2023/09/03 10:55:20;;;;;;;3.80;2.63;;;23.90;99.90;;;;;;5088410;28;20086;-61
2023/09/03 10:58:06;;;;;;;5.07;2.58;;;24.20;99.90;;;;;;5091502;28;20115;-61
2023/09/03 11:00:31;;;;;;;2.72;2.28;;;24.10;99.90;;;;;;5091332;28;20016;-60
2023/09/03 11:03:17;;;;;;;3.75;2.22;;;24.00;99.90;;;;;;5091144;28;20035;-61
2023/09/03 11:06:16;;;;;;;3.85;2.40;;;24.20;99.90;;;;;;5090996;28;20056;-61
2023/09/03 11:08:41;;;;;;;5.28;2.70;;;24.30;99.90;;;;;;5091086;28;20055;-60
2023/09/03 11:11:10;;;;;;;3.72;2.60;;;24.40;99.90;;;;;;5091160;28;20028;-61
2023/09/03 11:13:35;;;;;;;3.90;2.50;;;24.60;99.90;;;;;;5090980;28;20520;-60
2023/09/03 11:16:02;;;;;;;4.68;2.95;;;24.80;99.90;;;;;;5091091;28;20028;-60
2023/09/03 11:18:28;;;;;;;4.07;3.67;;;25.00;99.90;;;;;;5090646;28;20536;-61
2023/09/03 11:20:58;;;;;;;5.18;3.65;;;25.10;99.90;;;;;;5091293;28;20028;-61
2023/09/03 11:23:23;;;;;;;5.20;3.45;;;25.10;99.90;;;;;;5090844;28;20028;-61
2023/09/03 11:25:49;;;;;;;5.20;2.70;;;25.10;99.90;;;;;;5091030;28;20043;-61
2023/09/03 11:28:15;;;;;;;5.07;2.83;;;25.00;99.90;;;;;;5090829;28;20529;-61
2023/09/03 11:30:45;;;;;;;4.13;2.58;;;24.90;99.90;;;;;;5091348;28;20054;-61
2023/09/03 11:33:25;;;;;;;3.35;2.40;;;25.00;99.90;;;;;;5090489;28;20031;-61
2023/09/03 11:35:53;;;;;;;2.72;2.35;;;25.10;99.90;;;;;;5091096;28;20016;-61
2023/09/03 11:38:29;;;;;;;3.25;2.47;;;25.20;99.90;;;;;;5091291;28;20036;-61
2023/09/03 11:40:56;;;;;;;3.88;2.30;;;25.10;99.90;;;;;;5091087;28;20029;-61
2023/09/03 11:43:23;;;;;;;3.67;2.40;;;25.30;99.90;;;;;;5090833;28;20036;-61
2023/09/03 11:45:49;;;;;;;4.68;2.20;;;25.10;99.90;;;;;;5090768;28;20044;-61
2023/09/03 11:48:15;;;;;;;4.47;2.25;;;25.00;99.90;;;;;;5072440;28;20492;-61
2023/09/03 11:50:41;;;;;;;5.55;2.55;;;24.90;99.90;;;;;;5091003;28;20028;-61
2023/09/03 11:53:08;;;;;;;3.85;2.50;;;24.90;99.90;;;;;;5090719;28;20032;-61
2023/09/03 11:55:46;;;;;;;5.22;2.50;;;24.90;99.90;;;;;;5073014;28;20036;-61
2023/09/03 11:58:15;;;;;;;2.50;2.10;;;24.80;99.90;;;;;;5093970;28;20099;-61
2023/09/03 12:00:41;;;;;;;3.42;2.50;;;24.70;99.90;;;;;;5094322;28;20110;-61
2023/09/03 12:03:07;;;;;;;3.40;2.40;;;24.70;99.90;;;;;;5093759;28;20508;-61
2023/09/03 12:05:34;;;;;;;4.55;2.65;;;24.60;99.90;;;;;;5094579;28;20178;-61
2023/09/03 12:08:04;;;;;;;4.40;2.20;;;24.60;99.90;;;;;;5094295;28;20109;-61
2023/09/03 12:10:31;;;;;;;4.55;2.30;;;24.60;99.90;;;;;;5094314;28;20016;-61
2023/09/03 12:12:59;;;;;;;4.97;3.40;;;24.60;99.90;;;;;;5094099;28;20096;-61
2023/09/03 12:15:25;;;;;;;6.82;4.65;;;24.60;99.90;;;;;;5094421;28;20044;-61
2023/09/03 12:17:52;;;;;;;6.10;4.18;;;24.60;99.90;;;;;;5093647;28;20020;-61
2023/09/03 12:20:39;;;;;;;5.88;4.07;;;24.70;99.90;;;;;;5093836;28;20031;-61
2023/09/03 12:23:23;;;;;;;5.63;4.60;;;24.80;99.90;;;;;;5094351;28;20055;-61
2023/09/03 12:25:49;;;;;;;5.97;4.60;;;24.90;99.90;;;;;;5094310;28;20047;-61
2023/09/03 12:28:15;;;;;;;5.45;4.57;;;25.10;99.90;;;;;;5093740;28;20040;-61
2023/09/03 12:31:01;;;;;;;5.32;4.30;;;25.20;99.90;;;;;;5093670;28;20500;-61
2023/09/03 12:33:46;;;;;;;5.75;4.32;;;25.50;99.90;;;;;;5093514;28;20073;-61
2023/09/03 12:36:13;;;;;;;7.47;3.65;;;25.80;99.90;;;;;;5093683;28;20028;-61
2023/09/03 12:38:54;;;;;;;4.95;3.17;;;26.10;99.90;;;;;;5094228;28;20032;-60
2023/09/03 12:41:21;;;;;;;5.43;2.90;;;26.30;99.90;;;;;;5094023;28;20085;-61
2023/09/03 12:43:46;;;;;;;5.03;3.75;;;26.30;99.90;;;;;;5093501;28;20085;-61
2023/09/03 12:46:13;;;;;;;5.18;3.60;;;26.40;99.90;;;;;;5093093;28;20028;-61
2023/09/03 12:48:39;;;;;;;5.25;3.60;;;26.50;99.90;;;;;;5093502;28;20506;-60
2023/09/03 12:51:05;;;;;;;6.28;3.75;;;26.50;99.90;;;;;;5093159;28;20397;-61
2023/09/03 12:53:30;;;;;;;5.13;3.92;;;26.50;99.90;;;;;;5093341;28;20035;-61